Tuzla

TR-0227 · 伊斯坦布尔, 土耳其

罗盘
风向 的 直升机
风: 1 kt, 1 beaufort
0 ft 1.000 2.000 3.000 4.000 5.000
Cloud Cloud Cloud Cloud Cloud Cloud
BKN 400
METAR LTFJ 020550Z VRB01KT 2700 BR BKN004 08/07 Q1012 BECMG 4000 BKN006

METAR Tuzla - TR-0227

Tuzla是,土耳其中的直升机场。 该机场位于纬度40,82417和经度29,34000。 这个机场没有ICAO代码,我们使用TR-0227作为参考。 机场在Istanbul FIR中。

该航空气象观测是针对Istanbul Sabiha Gökçen International Airport在2024年3月2日 08:50, 当地时间进行的。

机场观察

可变方向的风很小或没有风。

可见度为2,7 km。

有碎云在400 ft的高度。 破损或更高的上限为400 ft。

当前天气为薄雾。 温度和风寒是8 °C。 露点为7 °C,相对湿度为93%。 海平面上的气压为1012 hPa (QNH)。

发展趋势

  • 变得

    可变方向的风很小或没有。 可见性变为4 km。 碎云在600 ft的高度.

白天

今天,太阳从07:34升起,在18:55降落。 这适用于Tuzla,世界夏令时可能有所不同。 当地时间与世界标准时间之间的时差为+3 小时。 当前,没有夏令时有效。

公司介绍

我们没有关于这个机场的公司信息。

体会

到Vliegles.nl去找飞行课程,跳伞和其他飞行体验。 浏览页面,了解Tuzla附近所有可用的活动。 你也可以使用搜索功能来寻找你所在地附近的特定飞行课程、跳伞或其他飞行体验。

乌云

400 ft BKN 碎云
600 ft BKN 变得 碎云

温度 & 天气

天气 薄雾
温度 8 °C
露点 7 °C
相对湿度 93%
Kp-index 0 (0-9)

白天

日出
07:34
中午
13:14
日落
18:55 (9:34)

小工具

你想在你的网站上有一个关于Tuzla的当前航空天气(METAR)的小部件吗?

显示HTML代码
?>